createdAt,value
2018-05-18T00:01:29.702Z,16.53
2018-05-18T00:03:57.364Z,16.51
2018-05-18T00:06:24.035Z,16.36
2018-05-18T00:08:50.747Z,16.46
2018-05-18T00:11:17.352Z,16.30
2018-05-18T00:13:49.481Z,16.26
2018-05-18T00:16:16.137Z,16.08
2018-05-18T00:18:42.839Z,16.14
2018-05-18T00:21:09.938Z,16.02
2018-05-18T00:23:36.876Z,15.67
2018-05-18T00:26:03.608Z,15.85
2018-05-18T00:28:30.193Z,15.83
2018-05-18T00:30:56.792Z,16.17
2018-05-18T00:33:23.645Z,16.02
2018-05-18T00:35:50.897Z,16.30
2018-05-18T00:38:17.589Z,16.28
2018-05-18T00:40:44.580Z,16.29
2018-05-18T00:43:11.364Z,16.47
2018-05-18T00:45:38.088Z,16.33
2018-05-18T00:48:04.685Z,16.14
2018-05-18T00:50:31.308Z,15.54
2018-05-18T00:53:01.715Z,15.58
2018-05-18T00:55:41.228Z,15.64
2018-05-18T00:58:07.810Z,15.76
2018-05-18T01:00:34.574Z,15.90
2018-05-18T01:03:05.956Z,15.71
2018-05-18T01:05:32.739Z,15.37
2018-05-18T01:07:59.813Z,15.40
2018-05-18T01:10:26.542Z,15.43
2018-05-18T01:12:59.617Z,15.22
2018-05-18T01:15:26.346Z,15.18
2018-05-18T01:17:53.110Z,15.55
2018-05-18T01:20:19.862Z,15.09
2018-05-18T01:22:51.007Z,15.16
2018-05-18T01:25:17.768Z,15.17
2018-05-18T01:27:44.402Z,15.27
2018-05-18T01:30:10.975Z,15.37
2018-05-18T01:32:37.613Z,15.15
2018-05-18T01:35:09.328Z,15.24
2018-05-18T01:37:35.971Z,15.17
2018-05-18T01:40:02.584Z,15.09
2018-05-18T01:42:29.388Z,15.36
2018-05-18T01:44:57.196Z,15.32
2018-05-18T01:47:23.808Z,15.39
2018-05-18T01:49:50.598Z,15.25
2018-05-18T01:52:17.636Z,15.33
2018-05-18T01:54:45.317Z,15.37
2018-05-18T01:57:12.004Z,15.36
2018-05-18T01:59:38.664Z,15.20
2018-05-18T02:02:05.301Z,15.27
2018-05-18T02:04:33.132Z,15.36
2018-05-18T02:06:59.782Z,15.36
2018-05-18T02:09:26.509Z,15.29
2018-05-18T02:11:53.209Z,15.26
2018-05-18T02:14:25.972Z,15.18
2018-05-18T02:16:52.606Z,15.10
2018-05-18T02:19:19.103Z,15.17
2018-05-18T02:21:45.741Z,15.38
2018-05-18T02:24:15.525Z,15.36
2018-05-18T02:26:42.231Z,15.14
2018-05-18T02:29:08.898Z,15.07
2018-05-18T02:31:35.498Z,15.22
2018-05-18T02:34:05.575Z,15.15
2018-05-18T02:36:32.300Z,15.21
2018-05-18T02:38:59.057Z,15.13
2018-05-18T02:41:25.547Z,14.98
2018-05-18T02:43:53.281Z,14.77
2018-05-18T02:46:20.421Z,14.84
2018-05-18T02:48:47.046Z,15.26
2018-05-18T02:51:13.690Z,15.37
2018-05-18T02:53:41.502Z,15.28
2018-05-18T02:56:08.102Z,15.15
2018-05-18T02:58:34.894Z,15.25
2018-05-18T03:01:01.525Z,14.82
2018-05-18T03:03:28.226Z,14.98
2018-05-18T03:05:55.220Z,15.12
2018-05-18T03:08:21.969Z,15.37
2018-05-18T03:10:49.112Z,15.18
2018-05-18T03:13:16.970Z,15.10
2018-05-18T03:15:43.709Z,15.13
2018-05-18T03:18:11.572Z,15.22
2018-05-18T03:20:38.558Z,15.38
2018-05-18T03:23:06.268Z,15.28
2018-05-18T03:28:22.825Z,15.32
2018-05-18T03:30:49.983Z,15.34
2018-05-18T03:33:19.800Z,15.35
2018-05-18T03:35:46.733Z,15.50
2018-05-18T03:38:13.305Z,15.40
2018-05-18T03:40:40.303Z,15.69
2018-05-18T03:43:08.446Z,15.55
2018-05-18T03:45:34.999Z,15.48
2018-05-18T03:48:01.970Z,15.63
2018-05-18T03:50:28.626Z,15.79
2018-05-18T03:52:56.407Z,15.80
2018-05-18T03:55:23.039Z,15.92
2018-05-18T03:57:50.011Z,16.08
2018-05-18T04:00:16.620Z,15.96
2018-05-18T04:02:58.645Z,16.14
2018-05-18T04:05:37.194Z,16.22
2018-05-18T04:08:15.682Z,16.24
2018-05-18T04:10:42.616Z,16.25
2018-05-18T04:13:09.439Z,16.16
2018-05-18T04:15:36.117Z,16.31
2018-05-18T04:18:03.213Z,16.10
2018-05-18T04:20:29.715Z,15.93
2018-05-18T04:22:57.511Z,15.95
2018-05-18T04:25:24.232Z,15.64
2018-05-18T04:27:50.894Z,15.97
2018-05-18T04:30:17.611Z,15.98
2018-05-18T04:32:45.361Z,16.26
2018-05-18T04:35:12.335Z,16.54
2018-05-18T04:37:38.960Z,16.66
2018-05-18T04:40:05.614Z,16.68
2018-05-18T04:42:33.389Z,16.65
2018-05-18T04:45:00.012Z,16.50
2018-05-18T04:47:26.758Z,16.51
2018-05-18T04:49:53.541Z,16.88
2018-05-18T04:52:20.757Z,16.98
2018-05-18T04:54:47.299Z,17.21
2018-05-18T04:57:13.973Z,17.27
2018-05-18T04:59:40.616Z,17.35
2018-05-18T05:02:07.258Z,17.41
2018-05-18T05:04:35.172Z,17.36
2018-05-18T05:07:01.864Z,17.75
2018-05-18T05:09:28.644Z,17.78
2018-05-18T05:11:55.304Z,17.94
2018-05-18T05:14:23.178Z,17.97
2018-05-18T05:16:50.156Z,18.03
2018-05-18T05:19:16.770Z,18.48
2018-05-18T05:21:43.334Z,18.44
2018-05-18T05:24:11.270Z,18.39
2018-05-18T05:26:37.795Z,18.56
2018-05-18T05:29:04.505Z,18.64
2018-05-18T05:31:31.073Z,18.93
2018-05-18T05:33:57.872Z,18.81
2018-05-18T05:36:24.490Z,18.94
2018-05-18T05:38:51.109Z,19.14
2018-05-18T05:41:17.853Z,18.94
2018-05-18T05:43:49.633Z,18.97
2018-05-18T05:46:16.605Z,18.95
2018-05-18T05:48:43.317Z,19.48
2018-05-18T05:51:10.052Z,19.32
2018-05-18T05:53:37.903Z,19.23
2018-05-18T05:56:04.906Z,19.60
2018-05-18T05:58:31.635Z,19.78
2018-05-18T06:00:58.250Z,19.92
2018-05-18T06:03:26.212Z,20.29
2018-05-18T06:05:52.986Z,20.43
2018-05-18T06:08:19.690Z,19.88
2018-05-18T06:10:46.547Z,20.22
2018-05-18T06:13:16.749Z,20.37
2018-05-18T06:15:43.776Z,20.23
2018-05-18T06:18:10.451Z,20.19
2018-05-18T06:20:36.981Z,20.45
2018-05-18T06:23:07.172Z,20.66
2018-05-18T06:25:33.856Z,21.02
2018-05-18T06:28:00.566Z,20.70
2018-05-18T06:30:27.318Z,20.79
2018-05-18T06:32:57.953Z,21.09
2018-05-18T06:35:24.667Z,21.25
2018-05-18T06:37:51.199Z,21.09
2018-05-18T06:40:18.034Z,21.00
2018-05-18T06:42:45.034Z,21.31
2018-05-18T06:45:11.789Z,21.39
2018-05-18T06:47:38.619Z,21.34
2018-05-18T06:50:05.408Z,21.47
2018-05-18T06:52:37.249Z,21.52
2018-05-18T06:55:03.744Z,21.60
2018-05-18T06:57:30.654Z,21.91
2018-05-18T06:59:57.272Z,22.02
2018-05-18T07:02:28.253Z,21.97
2018-05-18T07:04:54.952Z,21.86
2018-05-18T07:07:21.590Z,22.35
2018-05-18T07:09:48.241Z,21.84
2018-05-18T07:12:18.322Z,22.49
2018-05-18T07:14:45.059Z,22.38
2018-05-18T07:17:12.024Z,22.22
2018-05-18T07:19:38.933Z,22.26
2018-05-18T07:22:06.950Z,22.51
2018-05-18T07:24:33.536Z,22.70
2018-05-18T07:27:00.281Z,22.68
2018-05-18T07:29:26.994Z,22.68
2018-05-18T07:31:58.167Z,23.13
2018-05-18T07:34:24.818Z,22.64
2018-05-18T07:36:51.724Z,22.67
2018-05-18T07:39:18.386Z,22.91
2018-05-18T07:41:45.309Z,23.02
2018-05-18T07:44:12.283Z,23.46
2018-05-18T07:46:39.193Z,23.21
2018-05-18T07:49:05.769Z,23.67
2018-05-18T07:51:32.432Z,23.70
2018-05-18T07:54:00.269Z,23.18
2018-05-18T07:56:27.145Z,23.43
2018-05-18T07:58:53.724Z,23.80
2018-05-18T08:01:20.390Z,23.69
2018-05-18T08:03:55.045Z,23.86
2018-05-18T08:06:21.781Z,23.97
2018-05-18T08:08:48.981Z,23.86
2018-05-18T08:11:15.763Z,24.65
2018-05-18T08:13:42.442Z,24.47
2018-05-18T08:16:09.453Z,24.81
2018-05-18T08:18:36.157Z,24.01
2018-05-18T08:21:02.937Z,24.06
2018-05-18T08:23:39.537Z,24.65
2018-05-18T08:26:06.141Z,24.40
2018-05-18T08:28:44.920Z,24.83
2018-05-18T08:31:11.609Z,24.58
2018-05-18T08:33:43.877Z,24.45
2018-05-18T08:36:10.645Z,24.78
2018-05-18T08:38:37.249Z,24.88
2018-05-18T08:41:03.949Z,24.75
2018-05-18T08:43:33.813Z,24.89
2018-05-18T08:46:00.726Z,24.67
2018-05-18T08:48:27.505Z,25.45
2018-05-18T08:50:54.056Z,24.71
2018-05-18T08:53:23.946Z,25.65
2018-05-18T08:55:50.657Z,25.57
2018-05-18T08:58:17.358Z,25.86
2018-05-18T09:00:44.042Z,25.00
2018-05-18T09:03:11.841Z,25.50
2018-05-18T09:05:38.526Z,25.88
2018-05-18T09:08:05.252Z,25.77
2018-05-18T09:10:32.208Z,26.11
2018-05-18T09:13:02.333Z,25.70
2018-05-18T09:15:29.158Z,25.97
2018-05-18T09:17:55.718Z,26.03
2018-05-18T09:20:22.224Z,25.99
2018-05-18T09:22:50.072Z,26.28
2018-05-18T09:25:16.789Z,26.18
2018-05-18T09:27:43.579Z,26.24
2018-05-18T09:30:10.398Z,26.36
2018-05-18T09:32:39.184Z,27.23
2018-05-18T09:35:05.892Z,26.65
2018-05-18T09:37:32.553Z,27.23
2018-05-18T09:39:59.638Z,26.42
2018-05-18T09:42:27.306Z,26.55
2018-05-18T09:44:54.369Z,26.04
2018-05-18T09:47:21.021Z,26.78
2018-05-18T09:49:47.729Z,26.31
2018-05-18T09:52:18.739Z,27.05
2018-05-18T09:54:45.725Z,26.82
2018-05-18T09:57:12.206Z,26.80
2018-05-18T09:59:39.102Z,27.47
2018-05-18T10:02:09.531Z,27.13
2018-05-18T10:04:36.281Z,27.00
2018-05-18T10:07:02.987Z,27.45
2018-05-18T10:09:29.642Z,27.25
2018-05-18T10:12:01.662Z,27.61
2018-05-18T10:14:28.343Z,26.86
2018-05-18T10:16:54.881Z,27.16
2018-05-18T10:19:21.629Z,27.81
2018-05-18T10:21:49.738Z,27.85
2018-05-18T10:24:16.410Z,28.22
2018-05-18T10:26:42.788Z,28.21
2018-05-18T10:29:09.246Z,27.70
2018-05-18T10:31:39.182Z,28.92
2018-05-18T10:34:05.870Z,28.57
2018-05-18T10:36:32.369Z,28.23
2018-05-18T10:38:59.368Z,28.17
2018-05-18T10:41:29.465Z,28.15
2018-05-18T10:43:56.197Z,28.16
2018-05-18T10:46:22.974Z,28.59
2018-05-18T10:48:49.720Z,29.83
2018-05-18T10:51:16.973Z,27.98
2018-05-18T10:53:43.734Z,28.43
2018-05-18T10:56:10.822Z,29.38
2018-05-18T10:58:37.465Z,27.39
2018-05-18T11:01:04.211Z,28.57
2018-05-18T11:03:32.104Z,28.93
2018-05-18T11:05:58.789Z,29.31
2018-05-18T11:08:25.563Z,28.62
2018-05-18T11:10:52.312Z,29.18
2018-05-18T11:13:21.213Z,30.39
2018-05-18T11:15:48.017Z,29.41
2018-05-18T11:18:14.881Z,29.17
2018-05-18T11:20:41.484Z,30.18
2018-05-18T11:23:09.553Z,30.02
2018-05-18T11:25:36.255Z,30.46
2018-05-18T11:28:03.021Z,30.37
2018-05-18T11:30:29.675Z,29.74
2018-05-18T11:32:59.790Z,29.61
2018-05-18T11:35:26.355Z,29.81
2018-05-18T11:37:53.042Z,29.31
2018-05-18T11:40:19.814Z,29.35
2018-05-18T11:42:50.297Z,28.89
2018-05-18T11:45:17.433Z,29.29
2018-05-18T11:47:44.173Z,28.94
2018-05-18T11:50:10.880Z,29.77
2018-05-18T11:52:38.713Z,28.80
2018-05-18T11:55:05.734Z,29.17
2018-05-18T11:57:32.442Z,28.49
2018-05-18T11:59:58.934Z,29.71
2018-05-18T12:02:26.761Z,28.90
2018-05-18T12:04:53.790Z,29.38
2018-05-18T12:07:20.485Z,29.67
2018-05-18T12:09:47.225Z,29.90
2018-05-18T12:12:17.013Z,29.92
2018-05-18T12:14:43.698Z,31.02
2018-05-18T12:17:10.366Z,30.26
2018-05-18T12:19:37.480Z,29.29
2018-05-18T12:22:05.178Z,31.45
2018-05-18T12:24:31.877Z,30.14
2018-05-18T12:26:58.477Z,29.79
2018-05-18T12:29:25.256Z,29.25
2018-05-18T12:31:54.036Z,30.26
2018-05-18T12:34:21.016Z,31.06
2018-05-18T12:36:47.741Z,29.91
2018-05-18T12:39:14.443Z,30.23
2018-05-18T12:41:44.922Z,30.48
2018-05-18T12:44:11.594Z,30.85
2018-05-18T12:46:38.320Z,30.93
2018-05-18T12:49:05.442Z,30.29
2018-05-18T12:51:33.208Z,30.33
2018-05-18T12:53:59.759Z,31.09
2018-05-18T12:56:26.371Z,30.32
2018-05-18T12:58:52.940Z,31.19
2018-05-18T13:01:20.551Z,31.08
2018-05-18T13:03:47.235Z,30.25
2018-05-18T13:06:14.009Z,30.61
2018-05-18T13:08:40.705Z,30.81
2018-05-18T13:11:11.084Z,29.45
2018-05-18T13:13:37.769Z,30.43
2018-05-18T13:16:04.368Z,29.49
2018-05-18T13:18:30.978Z,29.64
2018-05-18T13:20:57.589Z,28.62
2018-05-18T13:23:24.309Z,29.58
2018-05-18T13:25:50.970Z,29.79
2018-05-18T13:28:17.686Z,29.64
2018-05-18T13:30:44.364Z,28.75
2018-05-18T13:33:12.181Z,29.58
2018-05-18T13:35:39.192Z,29.67
2018-05-18T13:38:06.149Z,29.77
2018-05-18T13:40:32.767Z,30.11
2018-05-18T13:43:00.483Z,28.29
2018-05-18T13:45:27.241Z,29.41
2018-05-18T13:47:53.904Z,28.89
2018-05-18T13:50:20.576Z,28.94
2018-05-18T13:52:50.839Z,29.21
2018-05-18T13:55:17.492Z,29.80
2018-05-18T13:57:44.139Z,28.70
2018-05-18T14:00:10.813Z,29.57
2018-05-18T14:02:38.644Z,29.70
2018-05-18T14:05:05.271Z,27.84
2018-05-18T14:07:31.971Z,29.01
2018-05-18T14:09:58.649Z,29.50
2018-05-18T14:12:28.341Z,28.88
2018-05-18T14:14:55.010Z,28.99
2018-05-18T14:17:21.737Z,29.16
2018-05-18T14:19:48.362Z,29.03
2018-05-18T14:22:18.465Z,30.12
2018-05-18T14:24:45.224Z,29.93
2018-05-18T14:27:11.861Z,28.82
2018-05-18T14:29:38.662Z,29.59
2018-05-18T14:32:09.981Z,27.62
2018-05-18T14:34:37.157Z,28.19
2018-05-18T14:37:04.106Z,28.38
2018-05-18T14:39:31.093Z,28.25
2018-05-18T14:42:01.497Z,28.77
2018-05-18T14:44:28.131Z,29.29
2018-05-18T14:46:54.929Z,28.79
2018-05-18T14:49:21.713Z,28.51
2018-05-18T14:51:51.554Z,27.40
2018-05-18T14:54:18.271Z,28.77
2018-05-18T14:56:44.834Z,27.46
2018-05-18T14:59:11.597Z,28.14
2018-05-18T15:01:39.464Z,28.27
2018-05-18T15:04:06.110Z,27.35
2018-05-18T15:06:32.781Z,27.80
2018-05-18T15:08:59.425Z,27.98
2018-05-18T15:11:27.209Z,27.50
2018-05-18T15:13:53.765Z,28.18
2018-05-18T15:16:20.483Z,27.21
2018-05-18T15:18:47.046Z,27.82
2018-05-18T15:21:14.693Z,26.81
2018-05-18T15:23:41.359Z,28.16
2018-05-18T15:26:07.985Z,27.76
2018-05-18T15:28:35.236Z,28.28
2018-05-18T15:31:02.986Z,27.15
2018-05-18T15:33:29.701Z,28.97
2018-05-18T15:35:56.437Z,27.35
2018-05-18T15:38:23.039Z,26.89
2018-05-18T15:40:50.767Z,27.47
2018-05-18T15:43:17.461Z,26.58
2018-05-18T15:45:44.076Z,27.49
2018-05-18T15:48:10.738Z,27.38
2018-05-18T15:50:37.418Z,28.55
2018-05-18T15:53:03.995Z,29.20
2018-05-18T15:55:30.945Z,28.15
2018-05-18T15:57:57.679Z,28.99
2018-05-18T16:00:24.314Z,29.76
2018-05-18T16:02:54.600Z,28.27
2018-05-18T16:05:21.299Z,28.29
2018-05-18T16:07:48.752Z,26.68
2018-05-18T16:10:15.575Z,24.45
2018-05-18T16:12:43.350Z,24.48
2018-05-18T16:15:10.061Z,25.55
2018-05-18T16:17:37.042Z,26.24
2018-05-18T16:20:03.735Z,26.81
2018-05-18T16:22:36.259Z,25.73
2018-05-18T16:25:02.838Z,27.83
2018-05-18T16:27:29.504Z,26.06
2018-05-18T16:29:56.150Z,26.03
2018-05-18T16:32:25.964Z,25.70
2018-05-18T16:34:52.838Z,24.34
2018-05-18T16:37:19.517Z,24.25
2018-05-18T16:39:46.471Z,23.66
2018-05-18T16:42:16.980Z,23.20
2018-05-18T16:44:43.637Z,23.54
2018-05-18T16:47:10.379Z,23.69
2018-05-18T16:49:37.311Z,22.76
2018-05-18T16:52:07.967Z,22.95
2018-05-18T16:54:34.609Z,23.64
2018-05-18T16:57:01.545Z,23.19
2018-05-18T16:59:28.169Z,23.10
2018-05-18T17:01:55.890Z,22.73
2018-05-18T17:04:22.523Z,22.67
2018-05-18T17:06:49.169Z,22.74
2018-05-18T17:09:16.026Z,22.49
2018-05-18T17:11:43.888Z,22.62
2018-05-18T17:14:10.585Z,22.50
2018-05-18T17:16:37.304Z,22.44
2018-05-18T17:19:03.957Z,22.48
2018-05-18T17:21:31.666Z,22.19
2018-05-18T17:23:58.227Z,22.19
2018-05-18T17:26:24.806Z,22.18
2018-05-18T17:28:51.505Z,22.09
2018-05-18T17:31:21.502Z,22.14
2018-05-18T17:33:48.307Z,21.80
2018-05-18T17:36:15.053Z,21.83
2018-05-18T17:38:41.665Z,21.76
2018-05-18T17:41:12.599Z,21.90
2018-05-18T17:43:39.182Z,21.72
2018-05-18T17:46:05.667Z,21.49
2018-05-18T17:48:32.310Z,21.46
2018-05-18T17:51:02.855Z,21.27
2018-05-18T17:53:29.418Z,20.91
2018-05-18T17:55:56.368Z,20.95
2018-05-18T17:58:22.898Z,21.29
2018-05-18T18:00:50.723Z,21.55
2018-05-18T18:03:17.365Z,21.33
2018-05-18T18:05:44.027Z,21.35
2018-05-18T18:08:11.858Z,20.72
2018-05-18T18:10:39.517Z,21.09
2018-05-18T18:13:06.257Z,20.71
2018-05-18T18:15:32.888Z,21.08
2018-05-18T18:17:59.533Z,20.92
2018-05-18T18:20:27.622Z,20.56
2018-05-18T18:22:54.138Z,21.01
2018-05-18T18:25:20.769Z,20.73
2018-05-18T18:27:47.325Z,20.69
2018-05-18T18:30:15.095Z,20.55
2018-05-18T18:32:41.784Z,20.82
2018-05-18T18:35:08.494Z,20.97
2018-05-18T18:37:35.134Z,20.73
2018-05-18T18:40:01.704Z,20.70
2018-05-18T18:42:29.333Z,20.76
2018-05-18T18:44:55.917Z,20.88
2018-05-18T18:47:22.821Z,21.15
2018-05-18T18:49:49.798Z,20.97
2018-05-18T18:52:17.350Z,20.78
2018-05-18T18:54:43.987Z,20.80
2018-05-18T18:57:10.672Z,21.66
2018-05-18T18:59:37.467Z,21.86
2018-05-18T19:02:07.455Z,21.36
2018-05-18T19:04:34.118Z,21.02
2018-05-18T19:07:00.809Z,20.62
2018-05-18T19:09:27.382Z,20.25
2018-05-18T19:11:57.450Z,20.53
2018-05-18T19:14:24.205Z,21.42
2018-05-18T19:16:50.600Z,21.25
2018-05-18T19:19:17.166Z,20.71
2018-05-18T19:21:45.091Z,20.66
2018-05-18T19:24:12.405Z,20.61
2018-05-18T19:26:39.533Z,21.26
2018-05-18T19:29:08.336Z,21.91
2018-05-18T19:31:38.282Z,21.77
2018-05-18T19:34:05.098Z,21.39
2018-05-18T19:36:31.580Z,20.69
2018-05-18T19:38:59.128Z,20.92
2018-05-18T19:41:26.816Z,20.45
2018-05-18T19:43:53.436Z,21.13
2018-05-18T19:46:20.750Z,20.97
2018-05-18T19:48:47.413Z,20.97
2018-05-18T19:51:14.310Z,21.35
2018-05-18T19:53:40.941Z,21.95
2018-05-18T19:56:07.700Z,21.25
2018-05-18T19:58:34.337Z,20.58
2018-05-18T20:01:03.078Z,20.49
2018-05-18T20:03:30.207Z,20.32
2018-05-18T20:05:56.732Z,20.41
2018-05-18T20:08:23.575Z,20.08
2018-05-18T20:10:53.632Z,19.92
2018-05-18T20:13:20.312Z,19.94
2018-05-18T20:15:46.931Z,19.90
2018-05-18T20:18:13.555Z,19.93
2018-05-18T20:20:44.334Z,20.19
2018-05-18T20:23:10.930Z,20.18
2018-05-18T20:25:37.774Z,20.16
2018-05-18T20:28:04.226Z,19.99
2018-05-18T20:30:35.593Z,19.91
2018-05-18T20:33:02.365Z,19.80
2018-05-18T20:35:28.937Z,19.80
2018-05-18T20:37:55.916Z,19.86
2018-05-18T20:40:22.625Z,19.92
2018-05-18T20:42:49.130Z,19.85
2018-05-18T20:45:15.634Z,19.87
2018-05-18T20:47:42.569Z,19.32
2018-05-18T20:50:13.045Z,19.21
2018-05-18T20:52:39.987Z,19.57
2018-05-18T20:55:06.677Z,19.41
2018-05-18T20:57:33.274Z,19.65
2018-05-18T21:00:03.758Z,19.29
2018-05-18T21:02:30.590Z,19.58
2018-05-18T21:04:57.381Z,19.60
2018-05-18T21:07:24.019Z,19.69
2018-05-18T21:09:50.911Z,19.65
2018-05-18T21:12:17.646Z,19.82
2018-05-18T21:14:44.279Z,19.78
2018-05-18T21:17:11.749Z,19.48
2018-05-18T21:19:38.502Z,19.78
2018-05-18T21:22:08.266Z,19.66
2018-05-18T21:24:34.842Z,19.61
2018-05-18T21:27:01.462Z,19.50
2018-05-18T21:29:28.112Z,19.19
2018-05-18T21:31:55.681Z,19.56
2018-05-18T21:34:22.336Z,19.61
2018-05-18T21:36:48.850Z,19.21
2018-05-18T21:39:15.417Z,19.43
2018-05-18T21:41:43.229Z,19.49
2018-05-18T21:44:12.892Z,19.39
2018-05-18T21:46:39.718Z,19.28
2018-05-18T21:49:06.327Z,18.95
2018-05-18T21:51:35.977Z,18.62
2018-05-18T21:54:02.630Z,18.43
2018-05-18T21:56:29.326Z,18.18
2018-05-18T21:58:55.918Z,17.84
2018-05-18T22:01:25.873Z,17.22
2018-05-18T22:03:52.585Z,17.15
2018-05-18T22:06:19.161Z,16.43
2018-05-18T22:08:45.749Z,16.70
2018-05-18T22:11:13.783Z,16.37
2018-05-18T22:13:40.394Z,16.54
2018-05-18T22:16:07.416Z,16.76
2018-05-18T22:18:34.058Z,16.88
2018-05-18T22:21:01.188Z,16.94
2018-05-18T22:23:27.756Z,17.04
2018-05-18T22:25:54.408Z,16.76
2018-05-18T22:28:21.111Z,16.96
2018-05-18T22:30:57.793Z,16.45
2018-05-18T22:33:24.440Z,16.26
2018-05-18T22:35:51.207Z,16.47
2018-05-18T22:38:17.789Z,16.76
2018-05-18T22:40:45.522Z,16.62
2018-05-18T22:43:12.203Z,16.32
2018-05-18T22:45:38.935Z,16.60
2018-05-18T22:48:05.433Z,16.80
2018-05-18T22:50:35.403Z,16.26
2018-05-18T22:53:02.042Z,16.40
2018-05-18T22:55:28.654Z,16.52
2018-05-18T22:57:55.224Z,16.64
2018-05-18T23:00:27.411Z,16.57
2018-05-18T23:02:53.936Z,16.69
2018-05-18T23:05:21.163Z,16.42
2018-05-18T23:07:47.816Z,16.49
2018-05-18T23:10:15.714Z,16.66
2018-05-18T23:12:42.334Z,16.75
2018-05-18T23:15:08.956Z,16.98
2018-05-18T23:17:35.440Z,16.94
2018-05-18T23:20:05.616Z,16.64
2018-05-18T23:22:32.250Z,16.59
2018-05-18T23:24:58.993Z,16.66
2018-05-18T23:27:25.649Z,16.71
2018-05-18T23:29:57.229Z,16.60
2018-05-18T23:32:23.876Z,16.56
2018-05-18T23:34:50.425Z,16.59
2018-05-18T23:37:17.101Z,16.40
2018-05-18T23:39:46.973Z,16.31
2018-05-18T23:42:13.554Z,15.99
2018-05-18T23:44:40.288Z,16.10
2018-05-18T23:47:07.254Z,16.18
2018-05-18T23:49:40.242Z,16.42
2018-05-18T23:52:06.875Z,16.47
2018-05-18T23:54:33.601Z,16.32
2018-05-18T23:57:00.277Z,16.29
2018-05-18T23:59:26.989Z,16.23
